Time;durP1;ratioP1;P1;durP2;ratioP2;P2;SDS_P1;SDS_P2;PMS_P1;PMS_P2;Temp;Humidity;BMP_temperature;BMP_pressure;BME280_temperature;BME280_humidity;BME280_pressure;Samples;Min_cycle;Max_cycle;Signal;HPM_P1;HPM_P2
2021/11/26 00:02:54;;;;;;;74.87;41.80;;;;;;;3.88;71.95;97932.73;2254451;79;20983;-81
2021/11/26 00:05:54;;;;;;;74.33;42.57;;;;;;;3.89;72.12;97931.02;2254141;79;20960;-81
2021/11/26 00:08:55;;;;;;;70.17;40.37;;;;;;;3.93;71.88;97934.13;2255152;79;20999;-81
2021/11/26 00:11:56;;;;;;;63.90;39.07;;;;;;;3.93;71.99;97937.58;2254206;79;20987;-81
2021/11/26 00:18:08;;;;;;;68.13;40.07;;;;;;;3.93;71.86;97935.41;2232705;79;20996;-81
2021/11/26 00:21:07;;;;;;;71.97;40.70;;;;;;;3.95;71.72;97935.03;2253683;79;20967;-82
2021/11/26 00:24:08;;;;;;;67.83;39.30;;;;;;;3.91;71.79;97924.18;2253817;79;20971;-81
2021/11/26 00:27:08;;;;;;;66.07;39.20;;;;;;;3.91;71.94;97922.47;2254741;79;20960;-82
2021/11/26 00:30:09;;;;;;;72.90;40.53;;;;;;;3.92;71.85;97921.63;2254777;79;20952;-82
2021/11/26 00:33:10;;;;;;;73.17;40.37;;;;;;;3.92;71.89;97916.47;2255140;79;21423;-83
2021/11/26 00:36:10;;;;;;;76.97;40.83;;;;;;;3.93;71.78;97926.38;2255072;79;20960;-81
2021/11/26 00:39:11;;;;;;;70.43;39.40;;;;;;;3.93;71.53;97914.34;2254899;79;20983;-82
2021/11/26 00:42:11;;;;;;;65.40;39.80;;;;;;;3.92;71.53;97915.17;2256130;79;20948;-81
2021/11/26 00:51:17;;;;;;;75.20;41.83;;;;;;;3.87;71.58;97902.58;2232791;79;20956;-82
2021/11/26 00:54:17;;;;;;;64.97;39.30;;;;;;;3.87;71.58;97899.13;2254035;79;20952;-82
2021/11/26 00:57:18;;;;;;;67.87;40.93;;;;;;;3.86;71.66;97900.84;2254225;79;21339;-81
2021/11/26 01:00:18;;;;;;;69.27;39.67;;;;;;;3.84;71.72;97896.06;2254236;79;20932;-81
2021/11/26 01:03:19;;;;;;;75.50;42.63;;;;;;;3.81;71.63;97891.70;2258487;78;21034;-80
2021/11/26 01:06:19;;;;;;;69.23;40.23;;;;;;;3.78;71.75;97886.88;2268100;78;20912;-81
2021/11/26 01:09:20;;;;;;;69.93;40.67;;;;;;;3.79;71.75;97890.79;2269015;78;21426;-81
2021/11/26 01:12:21;;;;;;;65.23;40.27;;;;;;;3.78;71.90;97893.33;2268615;78;21009;-81
2021/11/26 01:15:21;;;;;;;75.17;42.03;;;;;;;3.79;71.96;97884.75;2268514;78;20963;-80
2021/11/26 01:18:22;;;;;;;67.47;39.93;;;;;;;3.79;72.06;97879.17;2268683;78;20936;-81
2021/11/26 01:21:22;;;;;;;71.23;40.83;;;;;;;3.79;71.98;97876.59;2268249;78;21367;-80
2021/11/26 01:24:23;;;;;;;75.73;42.77;;;;;;;3.77;72.00;97876.98;2268643;78;21340;-81
2021/11/26 01:27:23;;;;;;;69.90;40.07;;;;;;;3.74;72.11;97874.74;2268762;78;20963;-80
2021/11/26 01:30:29;;;;;;;69.53;42.10;;;;;;;3.74;72.11;97861.42;2267660;78;20979;-81
2021/11/26 01:33:26;;;;;;;72.33;44.10;;;;;;;3.72;72.24;97857.94;2267904;78;21320;-80
2021/11/26 01:36:27;;;;;;;71.77;41.83;;;;;;;3.72;72.20;97855.34;2268957;78;20958;-80
2021/11/26 01:39:27;;;;;;;71.93;42.53;;;;;;;3.72;72.18;97849.31;2268774;78;21312;-80
2021/11/26 01:42:28;;;;;;;71.33;43.00;;;;;;;3.73;72.14;97852.34;2268859;78;20982;-82
2021/11/26 01:45:28;;;;;;;71.30;41.70;;;;;;;3.72;71.95;97852.77;2268339;78;20999;-81
2021/11/26 01:48:29;;;;;;;71.20;43.37;;;;;;;3.69;72.04;97851.41;2268274;78;21343;-80
2021/11/26 01:51:29;;;;;;;72.87;42.83;;;;;;;3.70;72.28;97845.41;2268530;78;21017;-81
2021/11/26 01:54:30;;;;;;;73.17;41.97;;;;;;;3.73;72.14;97847.19;2268635;78;20939;-80
2021/11/26 01:57:31;;;;;;;73.00;42.40;;;;;;;3.71;72.18;97849.73;2268811;78;20966;-81
2021/11/26 02:00:31;;;;;;;73.07;43.27;;;;;;;3.69;72.33;97852.70;2268695;78;20963;-80
2021/11/26 02:03:32;;;;;;;75.17;42.77;;;;;;;3.71;72.38;97848.86;2261951;78;21059;-81
2021/11/26 02:06:32;;;;;;;68.17;41.63;;;;;;;3.70;72.36;97841.54;2248296;79;20975;-81
2021/11/26 02:09:33;;;;;;;70.33;42.50;;;;;;;3.72;72.31;97844.16;2248552;79;21011;-81
2021/11/26 02:12:33;;;;;;;70.17;42.93;;;;;;;3.73;72.36;97835.58;2248697;79;20972;-80
2021/11/26 02:15:42;;;;;;;66.50;40.93;;;;;;;3.72;72.38;97841.16;2248366;79;20933;-80
2021/11/26 02:18:42;;;;;;;72.40;42.20;;;;;;;3.72;72.48;97832.12;2248321;79;21027;-81
2021/11/26 02:21:43;;;;;;;79.37;44.47;;;;;;;3.73;72.50;97846.77;2248385;79;20913;-80
2021/11/26 02:24:44;;;;;;;78.67;43.33;;;;;;;3.72;72.51;97841.57;2248372;79;21015;-82
2021/11/26 02:27:44;;;;;;;74.83;44.50;;;;;;;3.71;72.55;97839.83;2247950;79;21015;-81
2021/11/26 02:30:45;;;;;;;75.47;43.93;;;;;;;3.70;72.62;97833.80;2248127;79;20988;-81
2021/11/26 02:33:45;;;;;;;78.20;43.90;;;;;;;3.70;72.60;97828.63;2248112;79;20972;-81
2021/11/26 02:36:46;;;;;;;73.00;44.73;;;;;;;3.69;72.69;97833.77;2248074;79;20972;-81
2021/11/26 02:39:46;;;;;;;107.43;46.87;;;;;;;3.71;72.75;97838.13;2248228;79;20991;-81
2021/11/26 02:42:48;;;;;;;97.47;46.73;;;;;;;3.73;72.73;97827.41;2248177;79;20989;-82
2021/11/26 02:45:48;;;;;;;86.27;45.53;;;;;;;3.73;72.75;97822.67;2248399;79;20976;-83
2021/11/26 02:48:49;;;;;;;88.93;45.77;;;;;;;3.74;72.57;97832.16;2247958;79;21395;-82
2021/11/26 02:51:50;;;;;;;80.90;46.03;;;;;;;3.71;72.60;97830.80;2247957;79;21031;-82
2021/11/26 02:54:50;;;;;;;77.77;45.37;;;;;;;3.69;72.61;97820.86;2248172;79;20963;-82
2021/11/26 02:57:51;;;;;;;76.90;45.73;;;;;;;3.72;72.54;97830.83;2248547;79;20944;-83
2021/11/26 03:00:51;;;;;;;80.43;44.73;;;;;;;3.75;72.43;97837.35;2248255;79;21308;-82
2021/11/26 03:03:52;;;;;;;77.40;45.07;;;;;;;3.74;72.48;97836.90;2254902;78;21042;-82
2021/11/26 03:06:52;;;;;;;82.57;45.37;;;;;;;3.72;72.52;97840.28;2268362;78;20999;-81
2021/11/26 03:09:53;;;;;;;79.33;45.33;;;;;;;3.70;72.65;97836.37;2268438;78;20959;-82
2021/11/26 03:12:53;;;;;;;79.60;45.63;;;;;;;3.70;72.51;97831.22;2268271;78;21402;-82
2021/11/26 03:15:54;;;;;;;83.40;44.73;;;;;;;3.68;72.33;97823.86;2268530;78;21011;-82
2021/11/26 03:18:55;;;;;;;81.23;45.93;;;;;;;3.70;72.54;97810.98;2268340;78;20971;-82
2021/11/26 03:21:55;;;;;;;79.97;45.47;;;;;;;3.72;72.59;97801.15;2268231;78;20916;-83
2021/11/26 03:24:56;;;;;;;79.20;44.33;;;;;;;3.73;72.49;97814.92;2268379;78;21335;-82
2021/11/26 03:27:56;;;;;;;78.60;45.67;;;;;;;3.73;72.50;97806.77;2267993;78;20995;-81
2021/11/26 03:30:57;;;;;;;74.60;43.53;;;;;;;3.74;72.48;97805.05;2268324;78;21379;-82
2021/11/26 03:33:57;;;;;;;95.90;44.93;;;;;;;3.71;72.66;97800.70;2267934;76;21041;-82
2021/11/26 03:36:58;;;;;;;73.73;43.33;;;;;;;3.71;72.73;97799.41;2268382;78;21371;-81
2021/11/26 03:39:58;;;;;;;79.57;44.10;;;;;;;3.70;72.78;97805.41;2268415;78;20998;-81
2021/11/26 03:42:59;;;;;;;82.87;42.20;;;;;;;3.69;72.88;97800.21;2268328;78;20967;-82
2021/11/26 03:45:59;;;;;;;73.17;42.50;;;;;;;3.68;72.88;97795.89;2268094;78;20987;-83
2021/11/26 03:49:00;;;;;;;70.47;41.27;;;;;;;3.68;73.09;97793.30;2267978;78;21403;-83
2021/11/26 03:52:00;;;;;;;70.97;40.57;;;;;;;3.67;73.16;97784.69;2268159;78;20987;-83
2021/11/26 03:55:01;;;;;;;71.83;41.20;;;;;;;3.61;73.34;97783.27;2268238;78;20920;-82
2021/11/26 03:58:01;;;;;;;68.10;42.90;;;;;;;3.60;73.63;97778.08;2268124;78;21391;-83
2021/11/26 04:01:02;;;;;;;72.67;41.27;;;;;;;3.59;73.46;97778.49;2268440;78;20990;-81
2021/11/26 04:04:04;;;;;;;70.53;41.03;;;;;;;3.58;73.66;97772.88;2216172;78;21003;-81
2021/11/26 04:07:05;;;;;;;76.23;44.17;;;;;;;3.57;73.41;97769.84;2207508;81;21341;-81
2021/11/26 04:10:05;;;;;;;72.37;42.97;;;;;;;3.58;73.49;97766.84;2207282;81;20952;-81
2021/11/26 04:13:08;;;;;;;77.23;42.80;;;;;;;3.56;73.22;97754.33;2207007;81;20960;-81
2021/11/26 04:16:13;;;;;;;84.17;46.23;;;;;;;3.56;73.42;97760.78;2207186;81;20976;-83
2021/11/26 04:19:11;;;;;;;76.97;42.93;;;;;;;3.50;73.75;97759.81;2206770;80;20948;-82
2021/11/26 04:22:11;;;;;;;69.47;42.20;;;;;;;3.47;73.87;97762.73;2207211;81;20980;-82
2021/11/26 04:25:12;;;;;;;72.30;43.17;;;;;;;3.49;73.91;97759.36;2206973;81;20947;-82
2021/11/26 04:28:12;;;;;;;91.40;49.30;;;;;;;3.47;73.95;97752.00;2206812;81;21050;-81
2021/11/26 04:31:13;;;;;;;92.17;50.87;;;;;;;3.42;73.73;97744.97;2207163;81;20996;-81
2021/11/26 04:34:13;;;;;;;84.73;46.30;;;;;;;3.40;73.90;97744.06;2207408;81;20992;-81
2021/11/26 04:37:14;;;;;;;94.30;49.23;;;;;;;3.38;74.18;97740.58;2207192;81;20956;-80
2021/11/26 04:40:14;;;;;;;102.70;51.23;;;;;;;3.37;74.23;97732.38;2207001;81;21007;-81
2021/11/26 04:43:15;;;;;;;100.70;51.83;;;;;;;3.35;74.17;97732.34;2207345;81;20968;-80
2021/11/26 04:46:15;;;;;;;103.50;51.07;;;;;;;3.38;74.31;97723.39;2206809;81;20984;-81
2021/11/26 04:49:16;;;;;;;89.97;48.47;;;;;;;3.42;73.97;97720.45;2207012;81;20928;-80
2021/11/26 04:52:16;;;;;;;91.70;49.13;;;;;;;3.41;73.53;97726.45;2206713;81;20968;-81
2021/11/26 04:55:17;;;;;;;92.23;46.90;;;;;;;3.40;73.69;97737.19;2206597;81;21316;-81
2021/11/26 04:58:17;;;;;;;85.60;47.50;;;;;;;3.41;73.77;97740.64;2206170;81;20936;-82
2021/11/26 05:01:18;;;;;;;83.53;46.63;;;;;;;3.40;73.89;97731.16;2207094;81;20932;-82
2021/11/26 05:04:19;;;;;;;84.03;45.27;;;;;;;3.41;74.01;97714.84;2222145;79;21399;-82
2021/11/26 05:07:21;;;;;;;81.87;46.63;;;;;;;3.38;73.87;97710.91;2253652;79;20931;-82
2021/11/26 05:10:21;;;;;;;72.50;43.10;;;;;;;3.36;73.81;97701.84;2253927;79;20984;-80
2021/11/26 05:13:22;;;;;;;90.80;46.33;;;;;;;3.35;73.86;97705.69;2252969;79;20936;-81
2021/11/26 05:16:23;;;;;;;82.87;42.90;;;;;;;3.36;74.16;97698.40;2253756;79;20999;-81
2021/11/26 05:19:23;;;;;;;83.57;42.17;;;;;;;3.36;74.69;97708.30;2252621;79;21676;-81
2021/11/26 05:22:27;;;;;;;74.60;40.67;;;;;;;3.40;74.26;97707.52;2252395;79;20979;-82
2021/11/26 05:25:28;;;;;;;349.83;59.97;;;;;;;3.39;74.09;97703.62;2252269;79;21426;-82
2021/11/26 05:28:28;;;;;;;162.23;47.47;;;;;;;3.38;74.05;97692.44;2252390;79;21019;-82
2021/11/26 05:31:31;;;;;;;161.10;47.63;;;;;;;3.40;74.15;97686.02;2253515;79;20983;-76
2021/11/26 05:34:31;;;;;;;78.17;39.80;;;;;;;3.37;73.94;97670.48;2253420;79;21032;-82
2021/11/26 05:37:32;;;;;;;81.83;39.80;;;;;;;3.35;74.09;97670.86;2253966;79;20962;-83
2021/11/26 05:40:32;;;;;;;73.80;41.00;;;;;;;3.37;74.34;97664.03;2254293;79;20956;-80
2021/11/26 05:43:33;;;;;;;73.67;41.53;;;;;;;3.36;74.26;97664.87;2254140;79;21648;-81
2021/11/26 05:46:33;;;;;;;86.40;41.90;;;;;;;3.34;74.34;97669.99;2254162;79;20992;-82
2021/11/26 05:49:34;;;;;;;74.27;42.47;;;;;;;3.36;74.62;97672.61;2253587;79;21026;-82
2021/11/26 05:52:34;;;;;;;72.00;42.93;;;;;;;3.37;74.42;97678.22;2253609;79;21047;-82
2021/11/26 05:55:35;;;;;;;77.70;45.50;;;;;;;3.36;74.43;97675.19;2253678;79;21429;-80
2021/11/26 05:58:35;;;;;;;75.07;45.47;;;;;;;3.37;74.12;97678.22;2253440;79;20972;-83
2021/11/26 06:01:36;;;;;;;81.80;46.23;;;;;;;3.34;73.84;97663.55;2252711;79;21357;-81
2021/11/26 06:04:36;;;;;;;81.87;45.97;;;;;;;3.34;73.75;97651.06;2251520;79;21046;-81
2021/11/26 06:07:37;;;;;;;78.87;45.73;;;;;;;3.36;73.82;97646.81;2252719;79;20924;-81
2021/11/26 06:10:37;;;;;;;99.03;45.87;;;;;;;3.33;73.59;97650.61;2251746;79;20998;-81
2021/11/26 06:13:38;;;;;;;86.83;46.90;;;;;;;3.30;73.69;97643.69;2253605;79;21718;-80
2021/11/26 06:16:39;;;;;;;112.83;44.37;;;;;;;3.31;73.66;97645.84;2252541;79;20936;-80
2021/11/26 06:19:45;;;;;;;81.40;44.63;;;;;;;3.35;73.52;97657.97;2251548;79;20952;-80
2021/11/26 06:22:46;;;;;;;77.53;43.80;;;;;;;3.33;73.51;97659.22;2252196;79;21446;-81
2021/11/26 06:25:46;;;;;;;75.33;42.57;;;;;;;3.32;73.49;97646.30;2252262;79;20932;-85
2021/11/26 06:28:47;;;;;;;74.63;43.60;;;;;;;3.34;73.42;97658.80;2251746;79;20948;-81
2021/11/26 06:31:47;;;;;;;75.70;43.13;;;;;;;3.33;73.35;97650.20;2252984;79;20963;-81
2021/11/26 06:34:48;;;;;;;86.87;42.00;;;;;;;3.35;73.30;97648.94;2253075;79;21019;-81
2021/11/26 06:37:48;;;;;;;71.83;40.20;;;;;;;3.35;73.18;97654.09;2252570;79;20952;-82
2021/11/26 06:40:49;;;;;;;70.40;41.00;;;;;;;3.36;73.28;97655.42;2253050;79;21459;-81
2021/11/26 06:43:49;;;;;;;111.27;44.03;;;;;;;3.37;73.20;97644.69;2252187;79;21405;-82
2021/11/26 06:46:50;;;;;;;76.77;42.27;;;;;;;3.41;73.22;97656.80;2256264;79;20975;-77
2021/11/26 06:49:54;;;;;;;68.17;40.83;;;;;;;3.44;72.89;97648.71;2253069;79;20940;-82
2021/11/26 06:52:54;;;;;;;171.63;49.23;;;;;;;3.44;72.97;97651.70;2253690;79;21073;-81
2021/11/26 06:55:55;;;;;;;86.03;42.17;;;;;;;3.46;73.00;97658.64;2252652;79;20979;-83
2021/11/26 06:58:59;;;;;;;69.53;42.00;;;;;;;3.53;73.07;97661.37;2229610;79;21754;-82
2021/11/26 07:02:00;;;;;;;76.60;41.10;;;;;;;3.55;72.77;97667.44;2252991;79;21003;-83
2021/11/26 07:05:01;;;;;;;71.07;41.00;;;;;;;3.57;72.80;97665.77;2247916;78;20988;-83
2021/11/26 07:08:01;;;;;;;76.13;41.23;;;;;;;3.64;72.68;97662.47;2239997;79;20920;-82
2021/11/26 07:11:02;;;;;;;83.17;42.63;;;;;;;3.66;72.73;97673.27;2239794;79;21019;-83
2021/11/26 07:14:02;;;;;;;80.03;45.63;;;;;;;3.68;72.73;97667.72;2240210;79;20987;-81
2021/11/26 07:17:03;;;;;;;78.77;44.27;;;;;;;3.73;72.69;97660.06;2240277;79;20929;-83
2021/11/26 07:20:03;;;;;;;79.03;42.33;;;;;;;3.76;72.64;97651.09;2240106;79;20956;-82
2021/11/26 07:23:04;;;;;;;74.90;44.90;;;;;;;3.79;72.46;97655.02;2239418;79;20993;-80
2021/11/26 07:26:04;;;;;;;83.57;45.53;;;;;;;3.80;72.37;97651.19;2239631;79;20935;-82
2021/11/26 07:29:05;;;;;;;108.13;46.60;;;;;;;3.80;72.30;97638.28;2239533;79;20996;-82
2021/11/26 07:32:05;;;;;;;76.80;43.50;;;;;;;3.82;72.17;97631.85;2239455;79;21068;-81
2021/11/26 07:35:07;;;;;;;75.40;43.30;;;;;;;3.81;72.02;97623.23;2238977;79;20964;-82
2021/11/26 07:38:07;;;;;;;72.37;44.13;;;;;;;3.80;71.99;97618.92;2239001;79;21332;-82
2021/11/26 07:41:08;;;;;;;82.87;46.23;;;;;;;3.81;71.81;97618.49;2238408;79;20937;-82
2021/11/26 07:44:08;;;;;;;258.33;51.87;;;;;;;3.78;71.82;97619.31;2238476;79;20926;-81
2021/11/26 07:47:11;;;;;;;78.27;44.80;;;;;;;3.80;72.05;97620.63;2238008;79;20980;-82
2021/11/26 07:50:12;;;;;;;74.00;42.27;;;;;;;3.80;71.95;97621.50;2238984;79;20920;-83
2021/11/26 07:53:12;;;;;;;77.80;44.87;;;;;;;3.80;71.95;97609.88;2239427;79;20948;-83
2021/11/26 07:56:13;;;;;;;75.57;44.80;;;;;;;3.84;71.99;97618.13;2239426;79;20940;-82
2021/11/26 07:59:13;;;;;;;114.97;45.97;;;;;;;3.86;72.00;97612.12;2240966;79;21003;-82
2021/11/26 08:02:14;;;;;;;75.77;44.60;;;;;;;3.90;71.95;97612.63;2239575;79;20987;-82
2021/11/26 08:05:14;;;;;;;88.83;45.40;;;;;;;3.91;71.95;97610.50;2244585;79;21058;-80
2021/11/26 08:08:15;;;;;;;76.47;45.43;;;;;;;3.93;72.03;97610.11;2252981;79;20940;-81
2021/11/26 08:11:15;;;;;;;75.47;44.10;;;;;;;3.95;72.16;97608.00;2252536;79;20955;-81
2021/11/26 08:14:16;;;;;;;81.60;45.40;;;;;;;4.00;72.11;97608.95;2253093;79;21320;-82
2021/11/26 08:17:16;;;;;;;84.37;45.43;;;;;;;4.01;71.96;97613.70;2253305;79;20987;-80
2021/11/26 08:20:18;;;;;;;77.97;44.03;;;;;;;4.01;71.99;97611.11;2252660;79;20960;-80
2021/11/26 08:23:18;;;;;;;76.60;44.83;;;;;;;4.02;72.16;97612.85;2252785;79;21348;-82
2021/11/26 08:26:19;;;;;;;83.97;45.87;;;;;;;4.07;72.33;97612.52;2252534;79;21023;-82
2021/11/26 08:29:25;;;;;;;78.40;45.17;;;;;;;4.10;72.20;97605.69;2253590;79;21418;-82
2021/11/26 08:32:26;;;;;;;83.97;47.67;;;;;;;4.15;72.25;97598.02;2252622;79;21032;-80
2021/11/26 08:35:27;;;;;;;79.47;47.17;;;;;;;4.18;72.00;97597.20;2252966;79;21026;-82
2021/11/26 08:38:28;;;;;;;105.37;48.37;;;;;;;4.19;72.05;97598.94;2252700;79;20964;-83
2021/11/26 08:41:28;;;;;;;114.27;47.07;;;;;;;4.24;72.24;97585.26;2253225;79;21423;-83
2021/11/26 08:44:30;;;;;;;82.67;44.93;;;;;;;4.30;71.96;97584.48;2253560;79;20971;-82
2021/11/26 08:47:31;;;;;;;81.10;46.20;;;;;;;4.30;71.97;97573.73;2253145;79;20944;-82
2021/11/26 08:50:34;;;;;;;84.50;45.87;;;;;;;4.32;71.77;97575.92;2253617;79;20939;-82
2021/11/26 08:53:36;;;;;;;81.07;44.63;;;;;;;4.36;71.87;97563.95;2253494;79;20963;-82
2021/11/26 08:56:37;;;;;;;78.33;46.03;;;;;;;4.37;71.56;97559.23;2253392;79;20963;-82
2021/11/26 08:59:45;;;;;;;79.97;48.23;;;;;;;4.36;71.64;97557.49;2230434;79;20908;-81
2021/11/26 09:02:46;;;;;;;81.00;43.80;;;;;;;4.35;71.84;97547.58;2252820;79;21312;-81
2021/11/26 09:05:48;;;;;;;105.13;43.53;;;;;;;4.36;72.12;97544.16;2252133;79;21376;-82
2021/11/26 09:08:49;;;;;;;81.53;45.20;;;;;;;4.38;72.32;97533.42;2252912;79;20979;-82
2021/11/26 09:11:49;;;;;;;82.30;45.23;;;;;;;4.50;72.86;97533.16;2252852;79;21006;-81
2021/11/26 09:14:50;;;;;;;83.87;46.53;;;;;;;4.61;72.64;97532.47;2252713;79;21340;-80
2021/11/26 09:17:50;;;;;;;80.90;45.90;;;;;;;4.68;72.71;97519.20;2252287;79;20928;-81
2021/11/26 09:23:54;;;;;;;79.50;46.50;;;;;;;4.78;73.21;97509.00;2229652;78;20968;-82
2021/11/26 09:29:57;;;;;;;77.63;46.57;;;;;;;4.87;73.05;97503.09;2230273;79;20970;-82
2021/11/26 09:32:57;;;;;;;80.20;45.90;;;;;;;4.92;73.07;97511.77;2252972;79;20972;-82
2021/11/26 09:35:58;;;;;;;80.43;47.80;;;;;;;4.89;72.92;97503.11;2252966;79;20964;-82
2021/11/26 09:38:58;;;;;;;83.27;46.27;;;;;;;4.93;72.94;97494.53;2252547;79;20955;-80
2021/11/26 09:41:59;;;;;;;80.17;48.07;;;;;;;4.96;73.31;97490.27;2252761;79;21009;-82
2021/11/26 09:45:00;;;;;;;76.10;46.20;;;;;;;4.94;73.73;97491.97;2253428;79;20964;-82
2021/11/26 09:48:01;;;;;;;80.07;46.57;;;;;;;4.95;73.53;97484.66;2254117;79;21042;-82
2021/11/26 09:51:04;;;;;;;80.83;47.20;;;;;;;4.94;73.89;97484.21;2254040;79;21038;-81
2021/11/26 09:54:04;;;;;;;86.27;48.63;;;;;;;4.94;74.05;97477.75;2253449;79;20999;-81
2021/11/26 09:57:05;;;;;;;84.23;48.00;;;;;;;4.97;74.02;97464.85;2253529;79;21191;-83
2021/11/26 10:00:05;;;;;;;86.10;50.23;;;;;;;5.00;74.17;97464.89;2253818;79;21027;-82
2021/11/26 10:03:06;;;;;;;90.23;49.77;;;;;;;4.99;73.95;97462.28;2254098;79;21019;-82
2021/11/26 10:06:06;;;;;;;91.97;52.53;;;;;;;4.98;74.00;97454.95;2259766;78;21026;-83
2021/11/26 10:09:07;;;;;;;87.00;52.03;;;;;;;5.00;74.58;97442.04;2267108;78;20935;-83
2021/11/26 10:12:09;;;;;;;87.23;50.47;;;;;;;4.99;74.68;97442.47;2266920;78;21429;-84
2021/11/26 10:15:12;;;;;;;86.80;51.25;;;;;;;4.98;74.74;97429.52;2174109;82;21011;-83
2021/11/26 10:18:12;;;;;;;88.90;51.93;;;;;;;4.99;74.77;97429.53;2172210;82;20998;-84
2021/11/26 10:21:13;;;;;;;85.60;51.53;;;;;;;4.96;74.81;97423.03;2174188;82;21003;-84
2021/11/26 10:24:13;;;;;;;98.63;53.77;;;;;;;4.94;75.01;97408.35;2174141;82;20979;-83
2021/11/26 10:27:14;;;;;;;85.00;48.13;;;;;;;4.95;75.20;97408.38;2173974;82;21374;-83
2021/11/26 10:30:19;;;;;;;90.60;49.40;;;;;;;4.95;75.29;97405.78;2174124;82;21011;-82
2021/11/26 10:33:22;;;;;;;162.13;65.73;;;;;;;4.87;75.79;97400.09;2174060;82;20987;-81
2021/11/26 10:36:22;;;;;;;86.13;49.07;;;;;;;4.83;76.02;97394.02;2174481;82;21324;-82
2021/11/26 10:39:23;;;;;;;84.63;50.37;;;;;;;4.83;76.04;97387.55;2174245;82;20972;-82
2021/11/26 10:42:23;;;;;;;88.83;50.23;;;;;;;4.83;76.22;97381.09;2173945;82;20967;-82
2021/11/26 10:45:24;;;;;;;91.93;51.80;;;;;;;4.84;76.45;97380.23;2174479;82;21299;-82
2021/11/26 11:01:30;;;;;;;95.53;51.97;;;;;;;4.84;76.60;97342.75;2173349;82;21244;-81
2021/11/26 11:04:31;;;;;;;95.43;52.47;;;;;;;4.87;76.97;97328.56;2174461;82;21388;-83
2021/11/26 11:07:32;;;;;;;102.27;54.27;;;;;;;4.91;76.87;97329.03;2162855;82;21059;-84
2021/11/26 11:10:32;;;;;;;96.77;57.33;;;;;;;4.92;76.90;97326.02;2171227;79;21043;-83
2021/11/26 11:13:33;;;;;;;105.53;53.77;;;;;;;4.90;76.88;97322.12;2253218;79;20967;-83
2021/11/26 11:16:34;;;;;;;98.40;54.17;;;;;;;4.89;76.80;97319.10;2252961;79;21398;-83
2021/11/26 11:19:34;;;;;;;98.63;54.63;;;;;;;4.87;77.06;97319.52;2253487;79;20944;-84
2021/11/26 11:22:35;;;;;;;101.27;55.50;;;;;;;4.85;77.01;97309.58;2253411;79;20941;-84
2021/11/26 11:25:35;;;;;;;101.07;56.27;;;;;;;4.79;77.13;97304.35;2252345;79;20932;-83
2021/11/26 11:28:36;;;;;;;120.57;65.87;;;;;;;4.77;77.40;97304.34;2252221;79;20963;-82
2021/11/26 11:31:36;;;;;;;101.57;58.07;;;;;;;4.75;77.33;97303.88;2252738;79;20983;-84
2021/11/26 11:34:37;;;;;;;99.30;56.40;;;;;;;5.54;80.63;97297.25;2252941;79;20964;-82
2021/11/26 11:37:37;;;;;;;97.53;54.90;;;;;;;5.46;77.59;97294.61;2252795;79;21434;-83
2021/11/26 11:47:53;;;;;;;101.03;57.67;;;;;;;5.07;77.14;97274.44;2252186;79;20963;-82
2021/11/26 11:50:54;;;;;;;99.10;54.97;;;;;;;4.96;77.26;97271.77;2252650;79;20974;-82
2021/11/26 11:53:54;;;;;;;97.37;56.47;;;;;;;4.92;77.14;97264.83;2253109;79;20912;-84
2021/11/26 11:56:55;;;;;;;107.63;60.23;;;;;;;4.93;77.36;97252.34;2229050;79;20956;-82
2021/11/26 11:59:55;;;;;;;107.20;61.70;;;;;;;4.94;77.45;97237.27;2251553;79;21380;-82
2021/11/26 12:02:56;;;;;;;99.63;54.37;;;;;;;4.98;77.43;97235.15;2251393;79;20964;-82
2021/11/26 12:05:56;;;;;;;114.37;67.80;;;;;;;5.03;77.42;97223.12;2250519;79;20960;-83
2021/11/26 12:08:57;;;;;;;106.03;64.63;;;;;;;5.07;77.26;97219.70;2245780;79;21402;-83
2021/11/26 12:11:58;;;;;;;103.43;58.93;;;;;;;5.06;77.23;97209.34;2246121;79;21339;-83
2021/11/26 12:14:59;;;;;;;96.93;56.60;;;;;;;4.99;77.15;97203.27;2246129;79;20980;-84
2021/11/26 12:17:59;;;;;;;104.00;58.57;;;;;;;4.89;77.33;97195.00;2246713;79;21937;-82
2021/11/26 12:21:00;;;;;;;104.70;60.47;;;;;;;4.82;77.78;97187.19;2246495;79;20932;-83
2021/11/26 12:24:05;;;;;;;103.07;61.37;;;;;;;4.74;77.97;97181.95;2245537;79;20963;-84
2021/11/26 12:27:05;;;;;;;106.10;62.83;;;;;;;4.66;78.06;97175.86;2244420;79;20972;-82
2021/11/26 12:30:05;;;;;;;121.83;71.67;;;;;;;4.64;78.46;97165.93;2245937;79;20948;-82
2021/11/26 12:33:05;;;;;;;104.77;60.27;;;;;;;4.57;78.51;97154.68;2245723;79;21456;-83
2021/11/26 12:39:08;;;;;;;110.17;59.50;;;;;;;4.51;78.83;97151.18;2215082;79;20951;-83
2021/11/26 12:42:09;;;;;;;106.87;59.63;;;;;;;4.44;78.83;97151.13;2246179;79;20905;-82
2021/11/26 12:45:12;;;;;;;119.70;62.07;;;;;;;4.40;79.06;97145.49;2246251;79;20959;-83
2021/11/26 12:48:21;;;;;;;116.73;60.07;;;;;;;4.39;79.04;97146.77;2246091;79;21526;-83
2021/11/26 12:51:14;;;;;;;130.17;71.97;;;;;;;4.35;79.33;97134.67;2244407;79;21016;-83
2021/11/26 12:54:15;;;;;;;140.90;76.60;;;;;;;4.31;79.75;97130.30;2246338;79;20940;-82
2021/11/26 12:57:15;;;;;;;147.30;78.63;;;;;;;4.30;79.85;97120.40;2246323;79;20964;-83
2021/11/26 13:00:16;;;;;;;130.93;67.37;;;;;;;4.29;79.79;97108.34;2246930;79;21296;-82
2021/11/26 13:03:16;;;;;;;134.90;67.73;;;;;;;4.26;79.77;97108.73;2246561;79;21035;-82
2021/11/26 13:06:17;;;;;;;140.00;75.07;;;;;;;4.25;79.92;97106.58;2234643;79;21074;-81
2021/11/26 13:09:17;;;;;;;139.47;68.70;;;;;;;4.24;79.98;97103.98;2204922;81;20948;-82
2021/11/26 13:12:18;;;;;;;144.27;72.17;;;;;;;4.21;79.92;97100.95;2205691;81;21042;-82
2021/11/26 13:15:18;;;;;;;132.80;71.00;;;;;;;4.21;80.23;97103.53;2205293;81;20908;-83
2021/11/26 13:18:19;;;;;;;141.80;74.53;;;;;;;4.23;80.36;97101.83;2204501;81;20952;-82
2021/11/26 13:21:20;;;;;;;134.57;67.13;;;;;;;4.27;80.32;97093.68;2205414;81;21284;-84
2021/11/26 13:24:20;;;;;;;135.10;69.73;;;;;;;4.27;80.43;97088.52;2204303;81;20983;-82
2021/11/26 13:27:20;;;;;;;143.53;79.00;;;;;;;4.29;80.48;97093.27;2204040;81;20956;-83
2021/11/26 13:30:21;;;;;;;144.00;74.53;;;;;;;4.26;80.51;97087.65;2204633;81;20984;-82
2021/11/26 13:33:22;;;;;;;140.63;74.03;;;;;;;4.32;80.69;97082.96;2205299;81;21348;-81
2021/11/26 13:36:22;;;;;;;134.23;69.20;;;;;;;4.33;80.54;97076.52;2205378;81;21094;-83
2021/11/26 13:39:26;;;;;;;123.93;65.67;;;;;;;4.33;80.62;97076.52;2205034;81;21028;-83
2021/11/26 13:42:26;;;;;;;134.67;66.17;;;;;;;4.29;80.78;97070.88;2205268;80;20995;-82
2021/11/26 13:45:26;;;;;;;124.50;67.57;;;;;;;4.27;80.84;97064.84;2205642;81;20971;-82
2021/11/26 13:48:27;;;;;;;116.33;64.57;;;;;;;4.28;80.80;97061.41;2205462;81;21304;-82
2021/11/26 13:51:27;;;;;;;123.83;65.97;;;;;;;4.28;80.81;97056.23;2205397;81;20983;-85
2021/11/26 13:54:28;;;;;;;120.87;64.30;;;;;;;4.26;80.82;97052.78;2205261;81;20912;-82
2021/11/26 13:57:28;;;;;;;133.40;72.50;;;;;;;4.21;81.14;97053.17;2205687;81;21012;-81
2021/11/26 14:00:29;;;;;;;127.43;67.73;;;;;;;4.16;81.11;97049.26;2207936;81;20956;-82
2021/11/26 14:03:29;;;;;;;119.67;59.80;;;;;;;4.13;81.34;97048.37;2207180;81;20995;-83
2021/11/26 14:06:30;;;;;;;134.07;69.53;;;;;;;4.11;81.55;97043.19;2203102;79;20982;-84
2021/11/26 14:09:31;;;;;;;106.53;59.80;;;;;;;4.08;81.51;97036.71;2192584;81;21000;-81
2021/11/26 14:12:31;;;;;;;118.03;63.27;;;;;;;4.10;81.78;97036.72;2193027;81;21328;-82
2021/11/26 14:15:32;;;;;;;133.57;70.27;;;;;;;4.06;81.68;97035.83;2193102;81;21000;-85
2021/11/26 14:18:32;;;;;;;118.77;64.20;;;;;;;4.07;81.91;97034.98;2192740;81;20945;-81
2021/11/26 14:21:33;;;;;;;147.97;72.73;;;;;;;4.10;82.12;97027.69;2193089;81;20937;-83
2021/11/26 14:24:34;;;;;;;122.40;63.30;;;;;;;4.06;81.91;97019.48;2193348;81;21355;-84
2021/11/26 14:27:35;;;;;;;109.77;58.00;;;;;;;4.03;82.11;97010.42;2193559;81;21066;-82
2021/11/26 14:30:36;;;;;;;118.93;62.70;;;;;;;4.03;82.05;97002.67;2192717;81;21006;-82
2021/11/26 14:33:36;;;;;;;121.83;63.13;;;;;;;3.97;82.28;96996.17;2193481;81;20995;-82
2021/11/26 14:36:37;;;;;;;124.43;66.43;;;;;;;3.90;82.45;96995.25;2192914;81;20890;-82